Time;durP1;ratioP1;P1;durP2;ratioP2;P2;SDS_P1;SDS_P2;PMS_P1;PMS_P2;Temp;Humidity;BMP_temperature;BMP_pressure;BME280_temperature;BME280_humidity;BME280_pressure;Samples;Min_cycle;Max_cycle;Signal;HPM_P1;HPM_P2
2022/10/20 00:00:40;;;;;;;2.05;1.13;;;8.00;99.90;;;;;;5065139;28;20485;-92
2022/10/20 00:03:06;;;;;;;1.85;1.00;;;7.90;99.90;;;;;;5066063;28;20052;-92
2022/10/20 00:05:31;;;;;;;2.85;1.15;;;7.90;99.90;;;;;;5081190;28;20029;-87
2022/10/20 00:07:57;;;;;;;2.92;1.00;;;7.90;99.90;;;;;;5047647;28;20060;-93
2022/10/20 00:10:23;;;;;;;3.10;1.20;;;7.90;99.90;;;;;;5049697;28;20024;-83
2022/10/20 00:12:48;;;;;;;3.05;1.30;;;7.90;99.90;;;;;;5050626;28;20025;-87
2022/10/20 00:15:14;;;;;;;2.22;0.80;;;7.90;99.90;;;;;;5066872;28;20025;-87
2022/10/20 00:17:40;;;;;;;3.15;0.90;;;7.90;99.90;;;;;;5065253;28;20029;-90
2022/10/20 00:20:06;;;;;;;2.88;0.90;;;7.90;99.90;;;;;;5065179;28;20020;-91
2022/10/20 00:22:31;;;;;;;1.80;0.80;;;7.80;99.90;;;;;;5073507;28;20092;-90
2022/10/20 00:24:57;;;;;;;1.90;1.00;;;7.90;99.90;;;;;;5066826;28;20100;-90
2022/10/20 00:27:23;;;;;;;3.63;1.00;;;7.80;99.90;;;;;;5069001;28;20082;-84
2022/10/20 00:29:48;;;;;;;2.55;1.05;;;7.90;99.90;;;;;;5046352;28;20085;-90
2022/10/20 00:32:14;;;;;;;2.63;1.02;;;7.90;99.90;;;;;;5066495;28;20021;-88
2022/10/20 00:34:40;;;;;;;2.33;0.90;;;7.80;99.90;;;;;;5068095;28;20017;-87
2022/10/20 00:37:06;;;;;;;3.45;0.98;;;7.80;99.90;;;;;;5065213;28;20032;-89
2022/10/20 00:39:31;;;;;;;1.63;0.88;;;7.80;99.90;;;;;;5063887;28;20098;-93
2022/10/20 00:42:00;;;;;;;2.38;0.80;;;7.80;99.90;;;;;;5050882;28;20029;-89
2022/10/20 00:44:55;;;;;;;2.25;0.95;;;7.80;99.90;;;;;;5062775;28;20056;-88
2022/10/20 00:47:25;;;;;;;3.85;1.25;;;7.90;99.90;;;;;;5065069;28;20122;-90
2022/10/20 00:49:51;;;;;;;3.08;1.42;;;7.80;99.90;;;;;;5062931;28;20098;-85
2022/10/20 00:52:20;;;;;;;3.95;1.27;;;7.80;99.90;;;;;;5060794;28;20041;-93
2022/10/20 00:54:47;;;;;;;2.45;1.27;;;7.80;99.90;;;;;;5066287;28;20387;-89
2022/10/20 00:57:13;;;;;;;1.63;0.70;;;7.70;99.90;;;;;;5043272;28;20070;-88
2022/10/20 00:59:39;;;;;;;4.57;0.80;;;7.70;99.90;;;;;;5080562;28;20048;-94
2022/10/20 01:02:08;;;;;;;1.95;0.90;;;7.80;99.90;;;;;;5066787;28;20066;-83
2022/10/20 01:04:36;;;;;;;1.83;0.88;;;7.80;99.90;;;;;;5063500;28;20021;-90
2022/10/20 01:07:01;;;;;;;2.83;0.70;;;7.80;99.90;;;;;;5062075;28;20079;-81
2022/10/20 01:09:27;;;;;;;2.58;0.90;;;7.80;99.90;;;;;;5063352;28;20514;-88
2022/10/20 01:12:01;;;;;;;1.67;0.80;;;7.70;99.90;;;;;;5082040;28;20029;-93
2022/10/20 01:14:51;;;;;;;3.25;0.73;;;7.70;99.90;;;;;;5065958;28;20024;-93
2022/10/20 01:17:39;;;;;;;2.00;0.88;;;7.70;99.90;;;;;;5066688;28;20060;-94
2022/10/20 01:20:19;;;;;;;2.75;0.77;;;7.70;99.90;;;;;;5059009;28;20046;-86
2022/10/20 01:23:03;;;;;;;2.65;0.80;;;7.70;99.90;;;;;;5066927;28;20020;-90
2022/10/20 01:25:52;;;;;;;3.45;0.80;;;7.70;99.90;;;;;;5066802;28;20020;-90
2022/10/20 01:28:18;;;;;;;2.17;0.75;;;7.60;99.90;;;;;;5067363;28;20097;-90
2022/10/20 01:30:47;;;;;;;2.20;0.88;;;7.60;99.90;;;;;;5069648;28;20017;-94
2022/10/20 01:33:31;;;;;;;1.90;0.77;;;7.60;99.90;;;;;;5066833;28;20025;-88
2022/10/20 01:36:21;;;;;;;2.53;1.40;;;7.60;99.90;;;;;;5051848;28;20029;-95
2022/10/20 01:38:53;;;;;;;2.42;0.70;;;7.60;99.90;;;;;;5059846;28;20113;-89
2022/10/20 01:41:41;;;;;;;2.58;0.70;;;7.60;99.90;;;;;;5066623;28;20024;-94
2022/10/20 01:44:10;;;;;;;1.60;0.70;;;7.60;99.90;;;;;;5047030;28;20086;-94
2022/10/20 01:46:38;;;;;;;3.20;0.90;;;7.60;99.90;;;;;;5053196;28;20574;-90
2022/10/20 01:49:05;;;;;;;1.77;0.80;;;7.50;99.90;;;;;;5067230;28;20836;-91
2022/10/20 01:51:31;;;;;;;2.60;0.80;;;7.60;99.90;;;;;;5064405;28;20382;-92
2022/10/20 01:53:57;;;;;;;1.60;0.68;;;7.50;99.90;;;;;;5067102;28;20063;-91
2022/10/20 01:56:34;;;;;;;2.75;0.95;;;7.50;99.90;;;;;;5073408;28;20476;-91
2022/10/20 01:59:03;;;;;;;3.47;0.80;;;7.50;99.90;;;;;;5063875;28;20104;-88
2022/10/20 02:01:43;;;;;;;3.60;1.85;;;7.50;99.90;;;;;;5070155;28;20359;-94
2022/10/20 02:04:10;;;;;;;2.75;0.85;;;7.50;99.90;;;;;;5064758;28;20026;-88
2022/10/20 02:06:55;;;;;;;2.92;0.90;;;7.50;99.90;;;;;;5051481;28;20388;-90
2022/10/20 02:09:31;;;;;;;2.88;1.48;;;7.50;99.90;;;;;;5066147;28;20029;-82
2022/10/20 02:12:08;;;;;;;2.65;1.20;;;7.50;99.90;;;;;;5067573;28;20035;-83
2022/10/20 02:14:36;;;;;;;2.80;1.17;;;7.40;99.90;;;;;;5063747;28;20469;-84
2022/10/20 02:17:06;;;;;;;2.10;1.17;;;7.40;99.90;;;;;;5063183;28;20034;-85
2022/10/20 02:19:37;;;;;;;2.88;0.73;;;7.40;99.90;;;;;;5062413;28;20480;-91
2022/10/20 02:22:04;;;;;;;2.58;1.02;;;7.40;99.90;;;;;;5066975;28;20037;-89
2022/10/20 02:24:35;;;;;;;2.58;0.75;;;7.40;99.90;;;;;;5052655;28;20109;-83
2022/10/20 02:27:04;;;;;;;1.52;0.80;;;7.40;99.90;;;;;;5045422;28;20486;-86
2022/10/20 02:29:39;;;;;;;2.08;1.27;;;7.40;99.90;;;;;;5068452;28;20078;-84
2022/10/20 02:32:07;;;;;;;3.28;0.90;;;7.40;99.90;;;;;;5065772;28;20039;-80
2022/10/20 02:34:33;;;;;;;3.60;1.05;;;7.40;99.90;;;;;;5048001;28;20489;-88
2022/10/20 02:36:59;;;;;;;2.85;0.80;;;7.40;99.90;;;;;;5065658;28;20060;-83
2022/10/20 02:39:25;;;;;;;3.20;1.02;;;7.40;99.90;;;;;;5075568;28;20043;-87
2022/10/20 02:41:51;;;;;;;2.95;1.05;;;7.40;99.90;;;;;;5067714;28;20033;-83
2022/10/20 02:44:17;;;;;;;1.92;1.15;;;7.40;99.90;;;;;;5049342;28;20040;-80
2022/10/20 02:46:42;;;;;;;2.85;1.00;;;7.40;99.90;;;;;;5067145;28;20080;-87
2022/10/20 02:49:08;;;;;;;1.80;0.70;;;7.40;99.90;;;;;;5065896;28;20031;-80
2022/10/20 02:51:34;;;;;;;2.72;1.00;;;7.40;99.90;;;;;;5068845;28;20032;-81
2022/10/20 02:53:59;;;;;;;2.33;0.80;;;7.40;99.90;;;;;;5067108;28;20032;-82
2022/10/20 02:56:25;;;;;;;2.38;0.95;;;7.40;99.90;;;;;;5063075;28;20025;-87
2022/10/20 02:58:51;;;;;;;2.22;0.93;;;7.40;99.90;;;;;;5065092;28;20115;-84
2022/10/20 03:01:16;;;;;;;3.65;1.08;;;7.40;99.90;;;;;;5063862;28;20058;-88
2022/10/20 03:03:42;;;;;;;1.92;0.90;;;7.30;99.90;;;;;;5064987;28;20714;-86
2022/10/20 03:06:13;;;;;;;1.83;0.90;;;7.30;99.90;;;;;;5047853;28;20028;-77
2022/10/20 03:08:38;;;;;;;2.72;0.85;;;7.40;99.90;;;;;;5066125;28;20028;-83
2022/10/20 03:11:04;;;;;;;3.33;1.00;;;7.40;99.90;;;;;;5070984;28;20024;-85
2022/10/20 03:13:30;;;;;;;3.25;1.00;;;7.40;99.90;;;;;;5063834;28;20033;-87
2022/10/20 03:15:56;;;;;;;2.65;1.05;;;7.40;99.90;;;;;;5065868;28;20029;-87
2022/10/20 03:18:21;;;;;;;2.35;1.10;;;7.40;99.90;;;;;;5067189;28;20033;-89
2022/10/20 03:20:50;;;;;;;2.25;0.90;;;7.40;99.90;;;;;;5048853;28;20480;-81
2022/10/20 03:23:16;;;;;;;1.70;0.90;;;7.40;99.90;;;;;;5062259;28;20031;-86
2022/10/20 03:25:41;;;;;;;2.28;0.73;;;7.40;99.90;;;;;;5064753;28;20389;-89
2022/10/20 03:28:07;;;;;;;1.73;0.60;;;7.40;99.90;;;;;;5063605;28;20102;-88
2022/10/20 03:30:33;;;;;;;3.22;0.82;;;7.40;99.90;;;;;;5069205;28;20032;-87
2022/10/20 03:32:59;;;;;;;1.33;0.63;;;7.30;99.90;;;;;;5063806;28;20357;-85
2022/10/20 03:35:24;;;;;;;1.80;0.80;;;7.40;99.90;;;;;;5072215;28;20055;-83
2022/10/20 03:37:50;;;;;;;2.38;0.70;;;7.30;99.90;;;;;;5064858;28;20120;-83
2022/10/20 03:40:16;;;;;;;1.48;0.70;;;7.40;99.90;;;;;;5062815;28;20473;-89
2022/10/20 03:42:41;;;;;;;3.17;0.70;;;7.30;99.90;;;;;;5061476;28;20071;-91
2022/10/20 03:45:07;;;;;;;4.93;1.52;;;7.40;99.90;;;;;;5046959;28;20481;-86
2022/10/20 03:47:33;;;;;;;2.92;0.70;;;7.40;99.90;;;;;;5049260;28;20078;-84
2022/10/20 03:49:59;;;;;;;3.05;1.10;;;7.40;99.90;;;;;;5051546;28;20518;-87
2022/10/20 03:52:25;;;;;;;1.83;0.98;;;7.30;99.90;;;;;;5068145;28;20032;-83
2022/10/20 03:54:50;;;;;;;2.47;1.00;;;7.30;99.90;;;;;;5065509;28;20047;-87
2022/10/20 03:57:16;;;;;;;3.15;1.02;;;7.40;99.90;;;;;;5067593;28;20385;-90
2022/10/20 03:59:41;;;;;;;2.42;1.40;;;7.40;99.90;;;;;;5063579;28;20478;-85
2022/10/20 04:02:16;;;;;;;4.90;1.65;;;7.40;99.90;;;;;;5045093;28;20097;-79
2022/10/20 04:04:42;;;;;;;4.05;1.20;;;7.40;99.90;;;;;;5063583;28;20025;-85
2022/10/20 04:07:07;;;;;;;3.75;1.40;;;7.40;99.90;;;;;;5066300;28;20508;-77
2022/10/20 04:09:33;;;;;;;2.58;0.93;;;7.40;99.90;;;;;;5062388;28;20025;-86
2022/10/20 04:11:59;;;;;;;3.78;0.95;;;7.40;99.90;;;;;;5066170;28;20024;-83
2022/10/20 04:14:24;;;;;;;3.28;1.27;;;7.40;99.90;;;;;;5061748;28;20486;-83
2022/10/20 04:16:50;;;;;;;3.70;1.20;;;7.40;99.90;;;;;;5064541;28;20484;-88
2022/10/20 04:19:15;;;;;;;3.10;0.88;;;7.40;99.90;;;;;;5065295;28;20453;-89
2022/10/20 04:21:41;;;;;;;2.55;0.93;;;7.40;99.90;;;;;;5066496;28;20039;-86
2022/10/20 04:24:07;;;;;;;3.38;1.42;;;7.40;99.90;;;;;;5062235;28;20096;-81
2022/10/20 04:26:32;;;;;;;3.03;1.75;;;7.40;99.90;;;;;;5046891;28;20025;-85
2022/10/20 04:28:58;;;;;;;2.53;1.30;;;7.40;99.90;;;;;;5063208;28;20123;-84
2022/10/20 04:31:24;;;;;;;2.25;0.80;;;7.40;99.90;;;;;;5066612;28;20021;-82
2022/10/20 04:33:49;;;;;;;1.85;1.10;;;7.40;99.90;;;;;;5067196;28;20039;-86
2022/10/20 04:36:15;;;;;;;2.75;1.55;;;7.40;99.90;;;;;;5066289;28;20391;-88
2022/10/20 04:38:41;;;;;;;2.92;1.20;;;7.40;99.90;;;;;;5074073;28;20025;-86
2022/10/20 04:41:06;;;;;;;2.53;1.23;;;7.40;99.90;;;;;;5070291;28;20041;-81
2022/10/20 04:43:33;;;;;;;2.72;1.17;;;7.50;99.90;;;;;;5064455;28;20064;-86
2022/10/20 04:46:06;;;;;;;2.70;1.13;;;7.50;99.90;;;;;;5075880;28;20059;-85
2022/10/20 04:48:31;;;;;;;2.38;1.00;;;7.50;99.90;;;;;;5055070;28;20543;-85
2022/10/20 04:51:03;;;;;;;3.25;0.95;;;7.50;99.90;;;;;;5075111;28;20044;-88
2022/10/20 04:53:29;;;;;;;2.33;1.40;;;7.50;99.90;;;;;;5044364;28;20481;-86
2022/10/20 04:55:56;;;;;;;3.25;1.10;;;7.50;99.90;;;;;;5064236;28;20060;-81
2022/10/20 04:58:22;;;;;;;3.38;1.00;;;7.50;99.90;;;;;;5049932;28;20029;-87
2022/10/20 05:00:48;;;;;;;2.83;1.08;;;7.60;99.90;;;;;;5071805;28;20028;-89
2022/10/20 05:03:13;;;;;;;2.28;1.00;;;7.60;99.90;;;;;;5066464;28;20435;-88
2022/10/20 05:05:39;;;;;;;1.90;1.13;;;7.60;99.90;;;;;;5064039;28;20039;-86
2022/10/20 05:08:04;;;;;;;3.03;1.70;;;7.60;99.90;;;;;;5066115;28;20043;-82
2022/10/20 05:10:30;;;;;;;3.78;1.30;;;7.60;99.90;;;;;;5048248;28;20028;-86
2022/10/20 05:12:56;;;;;;;2.70;1.10;;;7.60;99.90;;;;;;5073805;28;20035;-86
2022/10/20 05:15:21;;;;;;;2.55;1.10;;;7.60;99.90;;;;;;5064327;28;20017;-88
2022/10/20 05:17:47;;;;;;;3.38;1.80;;;7.70;99.90;;;;;;5065799;28;20035;-87
2022/10/20 05:20:12;;;;;;;4.55;1.80;;;7.70;99.90;;;;;;5064266;28;20037;-81
2022/10/20 05:22:38;;;;;;;3.65;1.52;;;7.70;99.90;;;;;;5064043;28;20051;-88
2022/10/20 05:25:04;;;;;;;3.03;1.25;;;7.70;99.90;;;;;;5065668;28;20032;-79
2022/10/20 05:27:30;;;;;;;2.10;1.30;;;7.70;99.90;;;;;;5065352;28;20040;-88
2022/10/20 05:29:55;;;;;;;3.75;1.30;;;7.80;99.90;;;;;;5078421;28;20037;-84
2022/10/20 05:32:21;;;;;;;2.47;1.30;;;7.80;99.90;;;;;;5064066;28;20025;-85
2022/10/20 05:34:46;;;;;;;2.95;1.40;;;7.70;99.90;;;;;;5066966;28;20033;-79
2022/10/20 05:37:12;;;;;;;2.28;1.00;;;7.70;99.90;;;;;;5066266;28;20033;-83
2022/10/20 05:39:38;;;;;;;2.55;1.17;;;7.80;99.90;;;;;;5063947;28;20507;-86
2022/10/20 05:42:03;;;;;;;2.83;1.25;;;7.80;99.90;;;;;;5061806;28;20032;-85
2022/10/20 05:44:29;;;;;;;2.72;1.20;;;7.80;99.90;;;;;;5047956;28;20037;-83
2022/10/20 05:46:55;;;;;;;3.00;1.17;;;7.70;99.90;;;;;;5048916;28;20123;-87
2022/10/20 05:49:22;;;;;;;2.25;1.15;;;7.80;99.90;;;;;;5047982;28;20028;-87
2022/10/20 05:51:48;;;;;;;3.60;1.25;;;7.80;99.90;;;;;;5057453;28;20031;-82
2022/10/20 05:54:14;;;;;;;3.65;1.30;;;7.80;99.90;;;;;;5062629;28;20137;-83
2022/10/20 05:56:40;;;;;;;2.85;1.40;;;7.80;99.90;;;;;;5058296;28;20025;-85
2022/10/20 05:59:06;;;;;;;2.85;1.42;;;7.80;99.90;;;;;;5063137;28;20493;-87
2022/10/20 06:01:46;;;;;;;2.58;1.35;;;7.80;99.90;;;;;;5074521;28;20431;-83
2022/10/20 06:04:12;;;;;;;;;;;7.80;99.90;;;;;;5048151;28;20047;-87
2022/10/20 06:06:38;;;;;;;2.28;1.05;;;7.80;99.90;;;;;;5071024;28;19916;-81
2022/10/20 06:09:06;;;;;;;2.47;1.33;;;7.80;99.90;;;;;;5051540;28;20051;-88
2022/10/20 06:11:32;;;;;;;3.35;1.35;;;7.90;99.90;;;;;;5066505;28;20037;-85
2022/10/20 06:13:57;;;;;;;3.20;1.58;;;7.80;99.90;;;;;;5054635;28;20028;-86
2022/10/20 06:16:25;;;;;;;3.72;1.77;;;7.80;99.90;;;;;;5065581;28;20028;-85
2022/10/20 06:18:51;;;;;;;4.35;1.77;;;7.80;99.90;;;;;;5065470;28;20237;-81
2022/10/20 06:21:20;;;;;;;3.08;1.63;;;7.80;99.90;;;;;;5063916;28;20044;-86
2022/10/20 06:23:46;;;;;;;3.30;1.65;;;7.80;99.90;;;;;;5069623;28;20083;-85
2022/10/20 06:26:17;;;;;;;3.00;1.83;;;7.80;99.90;;;;;;5066500;28;20048;-84
2022/10/20 06:28:44;;;;;;;4.63;2.08;;;7.80;99.90;;;;;;5065177;28;20027;-87
2022/10/20 06:31:15;;;;;;;3.08;1.75;;;7.80;99.90;;;;;;5067797;28;20028;-81
2022/10/20 06:33:41;;;;;;;5.68;1.48;;;7.80;99.90;;;;;;5049710;28;20028;-84
2022/10/20 06:36:08;;;;;;;3.90;1.42;;;7.70;99.90;;;;;;5065490;28;20016;-84
2022/10/20 06:38:34;;;;;;;4.10;1.60;;;7.80;99.90;;;;;;5067918;28;20024;-80
2022/10/20 06:41:04;;;;;;;3.08;1.67;;;7.70;99.90;;;;;;5067156;28;20381;-80
2022/10/20 06:43:30;;;;;;;3.53;1.55;;;7.70;99.90;;;;;;5052899;28;20111;-84
2022/10/20 06:45:58;;;;;;;3.55;1.75;;;7.60;99.90;;;;;;5075967;28;20636;-86
2022/10/20 06:48:24;;;;;;;3.75;1.50;;;7.80;99.90;;;;;;5064820;28;20099;-81
2022/10/20 06:50:58;;;;;;;3.00;1.17;;;7.80;99.90;;;;;;5064546;28;20031;-83
2022/10/20 06:53:24;;;;;;;3.72;1.48;;;7.90;99.90;;;;;;5064745;28;20524;-86
2022/10/20 06:56:02;;;;;;;3.83;1.75;;;7.90;99.90;;;;;;5065138;28;20147;-86
2022/10/20 06:58:28;;;;;;;3.05;1.38;;;8.00;99.90;;;;;;5066785;28;20032;-84
2022/10/20 07:01:17;;;;;;;4.20;1.60;;;8.00;99.90;;;;;;5062782;28;20497;-87
2022/10/20 07:03:45;;;;;;;2.00;1.23;;;8.10;99.90;;;;;;5059332;28;20404;-83
2022/10/20 07:06:19;;;;;;;3.28;1.70;;;8.20;99.90;;;;;;5060386;28;20039;-84
2022/10/20 07:08:46;;;;;;;2.70;1.33;;;8.20;99.90;;;;;;5058353;28;20417;-86
2022/10/20 07:11:15;;;;;;;3.17;1.65;;;8.20;99.90;;;;;;5050607;28;20381;-87
2022/10/20 07:13:41;;;;;;;3.83;1.45;;;8.30;99.90;;;;;;5067114;28;20042;-87
2022/10/20 07:16:10;;;;;;;3.72;2.30;;;8.30;99.90;;;;;;5067188;28;20073;-81
2022/10/20 07:18:36;;;;;;;4.35;2.15;;;8.40;99.90;;;;;;5064767;28;20391;-80
2022/10/20 07:21:04;;;;;;;4.57;2.08;;;8.50;99.90;;;;;;5075911;28;20035;-79
2022/10/20 07:23:31;;;;;;;2.97;1.95;;;8.50;99.90;;;;;;5065724;28;20040;-87
2022/10/20 07:26:11;;;;;;;2.65;1.70;;;8.60;99.90;;;;;;5051970;28;20028;-83
2022/10/20 07:28:41;;;;;;;2.67;1.77;;;8.70;99.90;;;;;;5065922;28;20489;-85
2022/10/20 07:31:12;;;;;;;3.35;2.50;;;8.70;99.90;;;;;;5064837;28;20602;-86
2022/10/20 07:33:38;;;;;;;4.47;2.95;;;8.80;99.90;;;;;;5056163;28;20039;-84
2022/10/20 07:36:15;;;;;;;4.80;2.63;;;8.90;99.90;;;;;;5067149;28;20013;-88
2022/10/20 07:38:41;;;;;;;4.38;1.85;;;8.90;99.90;;;;;;5047162;28;20040;-82
2022/10/20 07:41:08;;;;;;;2.83;1.60;;;8.90;99.90;;;;;;5068316;28;20025;-86
2022/10/20 07:43:35;;;;;;;4.30;1.92;;;9.00;99.90;;;;;;5066343;28;20033;-88
2022/10/20 07:46:01;;;;;;;3.42;1.58;;;9.10;99.90;;;;;;5062627;28;20492;-86
2022/10/20 07:48:27;;;;;;;4.13;2.72;;;9.10;99.90;;;;;;5062897;28;20573;-81
2022/10/20 07:50:53;;;;;;;3.67;2.47;;;9.20;99.90;;;;;;5068110;28;20025;-83
2022/10/20 07:53:18;;;;;;;3.72;2.33;;;9.20;99.90;;;;;;5049259;28;20029;-85
2022/10/20 07:55:44;;;;;;;3.80;2.40;;;9.30;99.90;;;;;;5063291;28;20039;-85
2022/10/20 07:58:11;;;;;;;3.88;2.50;;;9.30;99.90;;;;;;5066860;28;20447;-86
2022/10/20 08:00:37;;;;;;;4.45;2.40;;;9.50;99.90;;;;;;5041406;28;20040;-86
2022/10/20 08:03:02;;;;;;;4.00;2.22;;;9.50;99.90;;;;;;5077803;28;20029;-82
2022/10/20 08:05:28;;;;;;;4.60;2.13;;;9.60;99.90;;;;;;5063791;28;20020;-83
2022/10/20 08:07:55;;;;;;;6.18;2.90;;;9.60;99.90;;;;;;5063459;28;20382;-80
2022/10/20 08:10:21;;;;;;;3.78;1.90;;;9.70;99.90;;;;;;5037878;28;20033;-86
2022/10/20 08:12:46;;;;;;;5.78;2.60;;;9.70;99.90;;;;;;5059355;28;20024;-86
2022/10/20 08:15:12;;;;;;;3.70;2.83;;;9.80;99.90;;;;;;5055923;28;20024;-85
2022/10/20 08:17:38;;;;;;;5.10;2.78;;;9.80;99.90;;;;;;5058155;28;20036;-78
2022/10/20 08:20:04;;;;;;;3.63;2.25;;;9.90;99.90;;;;;;5068075;28;20496;-86
2022/10/20 08:22:30;;;;;;;3.88;2.25;;;9.90;99.90;;;;;;5059674;28;20029;-85
2022/10/20 08:24:55;;;;;;;6.53;3.33;;;10.00;99.90;;;;;;5060850;28;20034;-87
2022/10/20 08:27:21;;;;;;;3.45;2.40;;;10.00;99.90;;;;;;5061521;28;20036;-81
2022/10/20 08:29:47;;;;;;;3.33;2.13;;;10.10;99.90;;;;;;5060004;28;20092;-86
2022/10/20 08:32:13;;;;;;;3.35;2.15;;;10.20;99.90;;;;;;5055695;28;20039;-82
2022/10/20 08:34:39;;;;;;;2.90;1.60;;;10.20;99.90;;;;;;5072509;28;20496;-83
2022/10/20 08:37:05;;;;;;;4.95;2.00;;;10.30;99.90;;;;;;5061735;28;20521;-79
2022/10/20 08:39:31;;;;;;;3.38;2.30;;;10.40;99.90;;;;;;5061766;28;20163;-82
2022/10/20 08:41:57;;;;;;;4.63;2.45;;;10.40;99.90;;;;;;5057615;28;20473;-78
2022/10/20 08:44:29;;;;;;;4.57;2.97;;;10.50;99.90;;;;;;5056299;28;20493;-85
2022/10/20 08:46:55;;;;;;;5.20;3.45;;;10.60;99.90;;;;;;5039995;28;20040;-85
2022/10/20 08:49:27;;;;;;;3.92;2.13;;;10.80;99.90;;;;;;5046507;28;20120;-84
2022/10/20 08:51:54;;;;;;;4.15;2.83;;;10.90;99.90;;;;;;5055424;28;20094;-82
2022/10/20 08:54:19;;;;;;;3.70;1.60;;;11.00;99.90;;;;;;5041251;28;20536;-81
2022/10/20 08:56:45;;;;;;;3.78;2.45;;;11.10;99.90;;;;;;5056893;28;20021;-84
2022/10/20 08:59:28;;;;;;;3.95;1.88;;;11.20;99.90;;;;;;5059108;28;20029;-80
2022/10/20 09:01:56;;;;;;;3.42;1.88;;;11.20;99.90;;;;;;5058835;28;20024;-82
2022/10/20 09:04:46;;;;;;;4.32;1.98;;;11.30;99.90;;;;;;5056160;28;20029;-84
2022/10/20 09:07:25;;;;;;;4.38;2.33;;;11.40;99.90;;;;;;5057778;28;20037;-82
2022/10/20 09:09:52;;;;;;;3.55;1.88;;;11.40;99.90;;;;;;5053715;28;20438;-86
2022/10/20 09:12:18;;;;;;;3.97;2.17;;;11.60;99.90;;;;;;5054518;28;20421;-83
2022/10/20 09:14:44;;;;;;;3.20;1.77;;;11.70;99.90;;;;;;5061328;28;20033;-86
2022/10/20 09:17:19;;;;;;;3.65;2.10;;;11.90;99.90;;;;;;5052866;28;20037;-81
2022/10/20 09:20:15;;;;;;;3.20;2.22;;;12.10;99.90;;;;;;5057596;28;20107;-80
2022/10/20 09:22:40;;;;;;;5.35;2.28;;;12.30;99.90;;;;;;5045937;28;20075;-86
2022/10/20 09:25:14;;;;;;;3.30;1.67;;;12.40;99.90;;;;;;5059593;28;20056;-84
2022/10/20 09:27:41;;;;;;;3.33;1.70;;;12.50;99.90;;;;;;5054478;28;20094;-80
2022/10/20 09:30:22;;;;;;;5.15;3.00;;;12.50;99.90;;;;;;5053341;28;20055;-81
2022/10/20 09:32:49;;;;;;;4.35;2.33;;;12.50;99.90;;;;;;5057402;28;20028;-82
2022/10/20 09:35:17;;;;;;;5.03;2.30;;;12.50;99.90;;;;;;5059805;28;20021;-86
2022/10/20 09:37:58;;;;;;;3.58;2.50;;;12.50;99.90;;;;;;5061203;28;20024;-84
2022/10/20 09:40:25;;;;;;;4.05;2.88;;;12.50;99.90;;;;;;5057332;28;20031;-81
2022/10/20 09:43:15;;;;;;;3.35;1.80;;;12.50;99.90;;;;;;5057021;28;20556;-78
2022/10/20 09:45:57;;;;;;;3.85;2.15;;;12.60;99.90;;;;;;5065388;28;20045;-83
2022/10/20 09:48:26;;;;;;;3.22;1.58;;;12.60;99.90;;;;;;5057845;28;20048;-84
2022/10/20 09:50:54;;;;;;;4.70;1.95;;;12.70;99.90;;;;;;5064436;28;20028;-87
2022/10/20 09:53:32;;;;;;;2.92;2.40;;;12.60;99.90;;;;;;5062106;28;20534;-81
2022/10/20 09:55:58;;;;;;;3.67;2.10;;;12.60;99.90;;;;;;5058834;28;20416;-87
2022/10/20 09:58:29;;;;;;;4.03;2.88;;;12.70;99.90;;;;;;5064922;28;20525;-82
2022/10/20 10:01:11;;;;;;;3.63;2.53;;;12.70;99.90;;;;;;5045153;28;20029;-83
2022/10/20 10:03:44;;;;;;;3.70;2.45;;;12.70;99.90;;;;;;5058125;28;20422;-85
2022/10/20 10:06:28;;;;;;;4.20;2.65;;;12.70;99.90;;;;;;5041029;28;20385;-81
2022/10/20 10:08:55;;;;;;;3.15;1.60;;;12.70;99.90;;;;;;5041236;28;20172;-84
2022/10/20 10:11:25;;;;;;;3.10;1.67;;;12.80;99.90;;;;;;5065255;28;20023;-86
2022/10/20 10:13:51;;;;;;;;;;;12.80;99.90;;;;;;5060587;28;20361;-82
2022/10/20 10:16:23;;;;;;;4.57;1.50;;;12.90;99.90;;;;;;5075742;28;19973;-85
2022/10/20 10:19:01;;;;;;;2.60;1.85;;;13.00;99.90;;;;;;5047714;28;20473;-87
2022/10/20 10:21:29;;;;;;;2.92;1.75;;;13.00;99.90;;;;;;5057172;28;20035;-85
2022/10/20 10:24:00;;;;;;;2.78;1.77;;;13.10;99.90;;;;;;5040056;28;20047;-83
2022/10/20 10:26:50;;;;;;;3.28;1.75;;;13.10;99.90;;;;;;5058136;28;20036;-79
2022/10/20 10:29:28;;;;;;;4.00;1.90;;;13.10;99.90;;;;;;5057828;28;20052;-86
2022/10/20 10:31:59;;;;;;;2.42;1.77;;;13.20;99.90;;;;;;5058177;28;20117;-87
2022/10/20 10:34:38;;;;;;;3.47;2.38;;;13.20;99.90;;;;;;5059631;28;20028;-84
2022/10/20 10:37:03;;;;;;;2.95;1.80;;;13.30;99.90;;;;;;5059581;28;20085;-89
2022/10/20 10:39:34;;;;;;;3.97;2.35;;;13.40;99.90;;;;;;5059414;28;20028;-85
2022/10/20 10:42:06;;;;;;;2.95;1.83;;;13.40;99.90;;;;;;5055418;28;20090;-83
2022/10/20 10:44:49;;;;;;;6.20;2.80;;;13.40;99.90;;;;;;5057647;28;20077;-81
2022/10/20 10:47:52;;;;;;;3.28;2.38;;;13.40;99.90;;;;;;5074257;28;20072;-88
2022/10/20 10:50:46;;;;;;;5.00;2.38;;;13.40;99.90;;;;;;5060609;28;20028;-83
2022/10/20 10:53:23;;;;;;;2.72;1.98;;;13.50;99.90;;;;;;5058650;28;20040;-78
2022/10/20 10:55:54;;;;;;;3.83;2.28;;;13.50;99.90;;;;;;5058701;28;20046;-83
2022/10/20 10:58:29;;;;;;;5.57;3.28;;;13.50;99.90;;;;;;5053868;28;20107;-85
2022/10/20 11:01:19;;;;;;;5.03;4.05;;;13.50;99.90;;;;;;5054646;28;20111;-77
2022/10/20 11:04:01;;;;;;;7.00;4.07;;;13.50;99.90;;;;;;5057692;28;20035;-86
2022/10/20 11:06:29;;;;;;;4.80;3.05;;;13.50;99.90;;;;;;5059589;28;20037;-82
2022/10/20 11:09:21;;;;;;;4.57;3.88;;;13.60;99.90;;;;;;5058060;28;20366;-81
2022/10/20 11:11:52;;;;;;;5.88;3.08;;;13.60;99.90;;;;;;5058594;28;20112;-81
2022/10/20 11:14:33;;;;;;;4.38;3.00;;;13.50;99.90;;;;;;5063018;28;20101;-79
2022/10/20 11:17:26;;;;;;;4.82;2.88;;;13.50;99.90;;;;;;5057564;28;20040;-80
2022/10/20 11:20:13;;;;;;;3.40;2.30;;;13.60;99.90;;;;;;5058178;28;20036;-78
2022/10/20 11:22:56;;;;;;;3.63;2.38;;;13.60;99.90;;;;;;5051632;28;20630;-83
2022/10/20 11:25:37;;;;;;;3.35;2.58;;;13.60;99.90;;;;;;5057228;28;20103;-83
2022/10/20 11:28:05;;;;;;;3.85;2.20;;;13.60;99.90;;;;;;5041972;28;20044;-82
2022/10/20 11:30:33;;;;;;;3.50;2.17;;;13.60;99.90;;;;;;5039640;28;22693;-82
2022/10/20 11:33:15;;;;;;;3.58;2.28;;;13.60;99.90;;;;;;5040714;28;20029;-78
2022/10/20 11:35:57;;;;;;;3.83;2.65;;;13.60;99.90;;;;;;5059878;28;20092;-84
2022/10/20 11:38:55;;;;;;;3.17;2.28;;;13.50;99.90;;;;;;5055927;28;20051;-81
2022/10/20 11:41:47;;;;;;;3.88;2.17;;;13.60;99.90;;;;;;5017038;28;20120;-78
2022/10/20 11:44:32;;;;;;;3.17;2.03;;;13.50;99.90;;;;;;5048341;28;20051;-77
2022/10/20 11:47:05;;;;;;;2.63;1.75;;;13.50;99.90;;;;;;5004096;28;20033;-81
2022/10/20 11:49:32;;;;;;;3.30;2.20;;;13.50;99.90;;;;;;5018897;28;20385;-85
2022/10/20 11:52:09;;;;;;;3.38;2.53;;;13.50;99.90;;;;;;5038365;28;20106;-80
2022/10/20 11:54:46;;;;;;;4.20;2.20;;;13.40;99.90;;;;;;5001782;28;20025;-80
2022/10/20 11:57:28;;;;;;;2.78;1.88;;;13.40;99.90;;;;;;5001410;28;20044;-79
2022/10/20 12:00:12;;;;;;;2.85;2.30;;;13.40;99.90;;;;;;5024506;28;20029;-79
2022/10/20 12:03:08;;;;;;;3.40;2.58;;;13.50;99.90;;;;;;5017917;28;20033;-79
2022/10/20 12:06:25;;;;;;;4.93;2.55;;;13.40;99.90;;;;;;5038516;28;20044;-82
2022/10/20 12:09:19;;;;;;;4.13;2.88;;;13.40;99.90;;;;;;5033219;28;20045;-78
2022/10/20 12:12:13;;;;;;;3.20;2.00;;;13.40;99.90;;;;;;5018121;28;20036;-83
2022/10/20 12:14:45;;;;;;;4.10;3.13;;;13.40;99.90;;;;;;5007240;28;20021;-79
2022/10/20 12:17:40;;;;;;;4.65;2.78;;;13.30;99.90;;;;;;5016225;28;20029;-79
2022/10/20 12:20:21;;;;;;;5.07;3.30;;;13.20;99.90;;;;;;5017824;28;20033;-79
2022/10/20 12:22:50;;;;;;;3.08;2.50;;;13.10;99.90;;;;;;5002161;28;20448;-80
2022/10/20 12:25:34;;;;;;;2.97;2.40;;;13.10;99.90;;;;;;5017962;28;20036;-82
2022/10/20 12:28:19;;;;;;;2.95;2.20;;;13.00;99.90;;;;;;4992806;28;20481;-83
2022/10/20 12:30:57;;;;;;;4.05;2.67;;;13.00;99.90;;;;;;4979631;28;20053;-81
2022/10/20 12:33:52;;;;;;;4.60;2.67;;;13.10;99.90;;;;;;5014626;28;20025;-81
2022/10/20 12:36:17;;;;;;;3.28;2.50;;;13.00;99.90;;;;;;5035021;28;20029;-80
2022/10/20 12:38:44;;;;;;;4.25;2.60;;;12.90;99.90;;;;;;5036616;28;20037;-82
2022/10/20 12:41:23;;;;;;;3.55;2.65;;;12.90;99.90;;;;;;5035729;28;20032;-80
2022/10/20 12:43:52;;;;;;;3.13;2.13;;;12.90;99.90;;;;;;5020177;28;20033;-79
2022/10/20 12:46:24;;;;;;;2.43;1.50;;;12.90;99.90;;;;;;5037057;28;20443;-77
2022/10/20 12:48:56;;;;;;;4.47;2.10;;;13.00;99.90;;;;;;5035925;28;20025;-78
2022/10/20 12:51:50;;;;;;;2.95;2.05;;;13.00;99.90;;;;;;5016331;28;20040;-79
2022/10/20 12:54:21;;;;;;;3.78;2.05;;;13.00;99.90;;;;;;5033760;28;20033;-78
2022/10/20 12:56:48;;;;;;;4.07;2.25;;;13.00;99.90;;;;;;5001574;28;20468;-83
2022/10/20 12:59:36;;;;;;;5.47;2.53;;;13.10;99.90;;;;;;5039410;28;20039;-77
2022/10/20 13:02:08;;;;;;;2.63;1.83;;;13.10;99.90;;;;;;5018353;28;20381;-78
2022/10/20 13:04:57;;;;;;;3.75;1.92;;;13.20;99.90;;;;;;5019710;28;20029;-78
2022/10/20 13:07:47;;;;;;;4.57;2.53;;;13.20;99.90;;;;;;5035323;28;20047;-82
2022/10/20 13:10:31;;;;;;;3.30;2.35;;;13.30;99.90;;;;;;5031991;28;20098;-77
2022/10/20 13:13:00;;;;;;;3.75;2.22;;;13.30;99.90;;;;;;5002938;28;20039;-78